sensor_id;sensor_type;location;lat;lon;timestamp;P1;durP1;ratioP1;P2;durP2;ratioP2
15555;SDS011;7879;48.660;9.116;2022-11-12T00:00:55;0.20;;;0.20;;
15555;SDS011;7879;48.660;9.116;2022-11-12T00:03:24;0.20;;;0.20;;
15555;SDS011;7879;48.660;9.116;2022-11-12T00:05:51;0.20;;;0.20;;
15555;SDS011;7879;48.660;9.116;2022-11-12T00:08:21;0.10;;;0.10;;
15555;SDS011;7879;48.660;9.116;2022-11-12T00:10:49;0.10;;;0.10;;
15555;SDS011;7879;48.660;9.116;2022-11-12T00:13:15;0.20;;;0.20;;
15555;SDS011;7879;48.660;9.116;2022-11-12T00:15:48;0.30;;;0.30;;
15555;SDS011;7879;48.660;9.116;2022-11-12T00:18:15;0.30;;;0.30;;
15555;SDS011;7879;48.660;9.116;2022-11-12T00:20:42;0.30;;;0.30;;
15555;SDS011;7879;48.660;9.116;2022-11-12T00:23:10;0.30;;;0.30;;
15555;SDS011;7879;48.660;9.116;2022-11-12T00:25:36;0.30;;;0.30;;
15555;SDS011;7879;48.660;9.116;2022-11-12T00:28:04;0.30;;;0.30;;
15555;SDS011;7879;48.660;9.116;2022-11-12T00:30:38;0.20;;;0.20;;
15555;SDS011;7879;48.660;9.116;2022-11-12T00:33:06;0.20;;;0.20;;
15555;SDS011;7879;48.660;9.116;2022-11-12T00:35:33;0.20;;;0.20;;
15555;SDS011;7879;48.660;9.116;2022-11-12T00:38:00;0.20;;;0.20;;
15555;SDS011;7879;48.660;9.116;2022-11-12T00:40:27;0.10;;;0.10;;
15555;SDS011;7879;48.660;9.116;2022-11-12T00:42:54;0.10;;;0.10;;
15555;SDS011;7879;48.660;9.116;2022-11-12T00:45:22;0.10;;;0.10;;
15555;SDS011;7879;48.660;9.116;2022-11-12T00:47:52;0.20;;;0.20;;
15555;SDS011;7879;48.660;9.116;2022-11-12T00:50:22;0.20;;;0.20;;
15555;SDS011;7879;48.660;9.116;2022-11-12T00:52:52;0.30;;;0.30;;
15555;SDS011;7879;48.660;9.116;2022-11-12T00:55:19;0.30;;;0.30;;
15555;SDS011;7879;48.660;9.116;2022-11-12T00:57:46;0.30;;;0.30;;
15555;SDS011;7879;48.660;9.116;2022-11-12T01:00:17;0.30;;;0.30;;
15555;SDS011;7879;48.660;9.116;2022-11-12T01:02:44;0.30;;;0.30;;
15555;SDS011;7879;48.660;9.116;2022-11-12T01:05:16;0.30;;;0.30;;
15555;SDS011;7879;48.660;9.116;2022-11-12T01:07:44;0.25;;;0.25;;
15555;SDS011;7879;48.660;9.116;2022-11-12T01:10:16;0.20;;;0.20;;
15555;SDS011;7879;48.660;9.116;2022-11-12T01:12:43;0.20;;;0.20;;
15555;SDS011;7879;48.660;9.116;2022-11-12T01:15:10;0.20;;;0.20;;
15555;SDS011;7879;48.660;9.116;2022-11-12T01:17:37;0.20;;;0.20;;
15555;SDS011;7879;48.660;9.116;2022-11-12T01:20:04;0.15;;;0.15;;
15555;SDS011;7879;48.660;9.116;2022-11-12T01:22:31;0.10;;;0.10;;
15555;SDS011;7879;48.660;9.116;2022-11-12T01:24:58;0.10;;;0.10;;
15555;SDS011;7879;48.660;9.116;2022-11-12T01:27:24;0.20;;;0.20;;
15555;SDS011;7879;48.660;9.116;2022-11-12T01:29:51;0.20;;;0.20;;
15555;SDS011;7879;48.660;9.116;2022-11-12T01:32:18;0.30;;;0.30;;
15555;SDS011;7879;48.660;9.116;2022-11-12T01:34:45;0.30;;;0.30;;
15555;SDS011;7879;48.660;9.116;2022-11-12T01:37:12;0.30;;;0.30;;
15555;SDS011;7879;48.660;9.116;2022-11-12T01:39:46;0.30;;;0.30;;
15555;SDS011;7879;48.660;9.116;2022-11-12T01:42:16;0.27;;;0.27;;
15555;SDS011;7879;48.660;9.116;2022-11-12T01:44:52;0.20;;;0.20;;
15555;SDS011;7879;48.660;9.116;2022-11-12T01:47:30;0.20;;;0.20;;
15555;SDS011;7879;48.660;9.116;2022-11-12T01:50:02;0.20;;;0.20;;
15555;SDS011;7879;48.660;9.116;2022-11-12T01:52:36;0.13;;;0.13;;
15555;SDS011;7879;48.660;9.116;2022-11-12T01:55:25;0.30;;;0.30;;
15555;SDS011;7879;48.660;9.116;2022-11-12T01:57:56;0.30;;;0.30;;
15555;SDS011;7879;48.660;9.116;2022-11-12T02:00:30;0.30;;;0.30;;
15555;SDS011;7879;48.660;9.116;2022-11-12T02:02:57;0.30;;;0.30;;
15555;SDS011;7879;48.660;9.116;2022-11-12T02:05:27;0.30;;;0.30;;
15555;SDS011;7879;48.660;9.116;2022-11-12T02:07:56;0.30;;;0.30;;
15555;SDS011;7879;48.660;9.116;2022-11-12T02:10:25;0.30;;;0.30;;
15555;SDS011;7879;48.660;9.116;2022-11-12T02:12:52;0.30;;;0.30;;
15555;SDS011;7879;48.660;9.116;2022-11-12T02:15:38;0.20;;;0.20;;
15555;SDS011;7879;48.660;9.116;2022-11-12T02:18:06;0.20;;;0.20;;
15555;SDS011;7879;48.660;9.116;2022-11-12T02:20:37;0.20;;;0.20;;
15555;SDS011;7879;48.660;9.116;2022-11-12T02:23:04;0.10;;;0.10;;
15555;SDS011;7879;48.660;9.116;2022-11-12T02:25:32;0.10;;;0.10;;
15555;SDS011;7879;48.660;9.116;2022-11-12T02:28:01;0.10;;;0.10;;
15555;SDS011;7879;48.660;9.116;2022-11-12T02:30:48;0.20;;;0.20;;
15555;SDS011;7879;48.660;9.116;2022-11-12T02:33:15;0.30;;;0.30;;
15555;SDS011;7879;48.660;9.116;2022-11-12T02:35:41;0.30;;;0.30;;
15555;SDS011;7879;48.660;9.116;2022-11-12T02:38:08;0.30;;;0.30;;
15555;SDS011;7879;48.660;9.116;2022-11-12T02:40:35;0.30;;;0.30;;
15555;SDS011;7879;48.660;9.116;2022-11-12T02:43:02;0.30;;;0.30;;
15555;SDS011;7879;48.660;9.116;2022-11-12T02:45:29;0.30;;;0.30;;
15555;SDS011;7879;48.660;9.116;2022-11-12T02:47:57;0.30;;;0.30;;
15555;SDS011;7879;48.660;9.116;2022-11-12T02:50:24;0.30;;;0.30;;
15555;SDS011;7879;48.660;9.116;2022-11-12T02:52:50;0.28;;;0.28;;
15555;SDS011;7879;48.660;9.116;2022-11-12T02:55:17;0.30;;;0.30;;
15555;SDS011;7879;48.660;9.116;2022-11-12T02:57:44;0.30;;;0.30;;
15555;SDS011;7879;48.660;9.116;2022-11-12T03:00:11;0.30;;;0.30;;
15555;SDS011;7879;48.660;9.116;2022-11-12T03:02:39;0.20;;;0.20;;
15555;SDS011;7879;48.660;9.116;2022-11-12T03:05:11;0.20;;;0.20;;
15555;SDS011;7879;48.660;9.116;2022-11-12T03:07:38;0.30;;;0.30;;
15555;SDS011;7879;48.660;9.116;2022-11-12T03:10:05;0.30;;;0.30;;
15555;SDS011;7879;48.660;9.116;2022-11-12T03:12:32;0.28;;;0.28;;
15555;SDS011;7879;48.660;9.116;2022-11-12T03:14:59;0.30;;;0.30;;
15555;SDS011;7879;48.660;9.116;2022-11-12T03:17:26;0.30;;;0.30;;
15555;SDS011;7879;48.660;9.116;2022-11-12T03:19:52;0.20;;;0.20;;
15555;SDS011;7879;48.660;9.116;2022-11-12T03:22:19;0.20;;;0.20;;
15555;SDS011;7879;48.660;9.116;2022-11-12T03:24:46;0.20;;;0.20;;
15555;SDS011;7879;48.660;9.116;2022-11-12T03:27:12;0.20;;;0.20;;
15555;SDS011;7879;48.660;9.116;2022-11-12T03:29:40;0.20;;;0.20;;
15555;SDS011;7879;48.660;9.116;2022-11-12T03:32:06;0.20;;;0.20;;
15555;SDS011;7879;48.660;9.116;2022-11-12T03:34:33;0.20;;;0.20;;
15555;SDS011;7879;48.660;9.116;2022-11-12T03:37:00;0.20;;;0.20;;
15555;SDS011;7879;48.660;9.116;2022-11-12T03:39:28;0.20;;;0.20;;
15555;SDS011;7879;48.660;9.116;2022-11-12T03:41:54;0.20;;;0.20;;
15555;SDS011;7879;48.660;9.116;2022-11-12T03:44:21;0.20;;;0.20;;
15555;SDS011;7879;48.660;9.116;2022-11-12T03:46:48;0.20;;;0.20;;
15555;SDS011;7879;48.660;9.116;2022-11-12T03:49:14;0.30;;;0.30;;
15555;SDS011;7879;48.660;9.116;2022-11-12T03:51:41;0.30;;;0.30;;
15555;SDS011;7879;48.660;9.116;2022-11-12T03:54:08;0.30;;;0.30;;
15555;SDS011;7879;48.660;9.116;2022-11-12T03:56:34;0.30;;;0.30;;
15555;SDS011;7879;48.660;9.116;2022-11-12T03:59:01;0.30;;;0.30;;
15555;SDS011;7879;48.660;9.116;2022-11-12T04:01:28;0.30;;;0.30;;
15555;SDS011;7879;48.660;9.116;2022-11-12T04:03:55;0.30;;;0.30;;
15555;SDS011;7879;48.660;9.116;2022-11-12T04:06:22;0.30;;;0.30;;
15555;SDS011;7879;48.660;9.116;2022-11-12T04:09:07;0.30;;;0.30;;
15555;SDS011;7879;48.660;9.116;2022-11-12T04:11:34;0.30;;;0.30;;
15555;SDS011;7879;48.660;9.116;2022-11-12T04:14:01;0.30;;;0.30;;
15555;SDS011;7879;48.660;9.116;2022-11-12T04:16:27;0.30;;;0.30;;
15555;SDS011;7879;48.660;9.116;2022-11-12T04:19:13;0.30;;;0.30;;
15555;SDS011;7879;48.660;9.116;2022-11-12T04:22:00;0.20;;;0.20;;
15555;SDS011;7879;48.660;9.116;2022-11-12T04:24:33;0.22;;;0.22;;
15555;SDS011;7879;48.660;9.116;2022-11-12T04:27:24;0.20;;;0.20;;
15555;SDS011;7879;48.660;9.116;2022-11-12T04:29:53;0.20;;;0.20;;
15555;SDS011;7879;48.660;9.116;2022-11-12T04:32:49;0.20;;;0.20;;
15555;SDS011;7879;48.660;9.116;2022-11-12T04:35:20;0.20;;;0.20;;
15555;SDS011;7879;48.660;9.116;2022-11-12T04:37:48;0.22;;;0.22;;
15555;SDS011;7879;48.660;9.116;2022-11-12T04:43:07;0.30;;;0.30;;
15555;SDS011;7879;48.660;9.116;2022-11-12T04:45:54;0.30;;;0.30;;
15555;SDS011;7879;48.660;9.116;2022-11-12T04:48:22;0.30;;;0.30;;
15555;SDS011;7879;48.660;9.116;2022-11-12T04:51:01;0.30;;;0.30;;
15555;SDS011;7879;48.660;9.116;2022-11-12T04:53:49;0.20;;;0.20;;
15555;SDS011;7879;48.660;9.116;2022-11-12T04:56:16;0.20;;;0.20;;
15555;SDS011;7879;48.660;9.116;2022-11-12T04:58:43;0.20;;;0.20;;
15555;SDS011;7879;48.660;9.116;2022-11-12T05:01:09;0.20;;;0.20;;
15555;SDS011;7879;48.660;9.116;2022-11-12T05:03:36;0.20;;;0.20;;
15555;SDS011;7879;48.660;9.116;2022-11-12T05:06:03;0.30;;;0.30;;
15555;SDS011;7879;48.660;9.116;2022-11-12T05:08:50;0.23;;;0.23;;
15555;SDS011;7879;48.660;9.116;2022-11-12T05:11:17;0.30;;;0.30;;
15555;SDS011;7879;48.660;9.116;2022-11-12T05:13:44;0.20;;;0.20;;
15555;SDS011;7879;48.660;9.116;2022-11-12T05:16:10;0.30;;;0.30;;
15555;SDS011;7879;48.660;9.116;2022-11-12T05:18:37;0.20;;;0.20;;
15555;SDS011;7879;48.660;9.116;2022-11-12T05:21:04;0.20;;;0.20;;
15555;SDS011;7879;48.660;9.116;2022-11-12T05:23:50;0.20;;;0.20;;
15555;SDS011;7879;48.660;9.116;2022-11-12T05:26:17;0.13;;;0.13;;
15555;SDS011;7879;48.660;9.116;2022-11-12T05:28:44;0.20;;;0.20;;
15555;SDS011;7879;48.660;9.116;2022-11-12T05:31:11;0.20;;;0.20;;
15555;SDS011;7879;48.660;9.116;2022-11-12T05:33:37;0.20;;;0.20;;
15555;SDS011;7879;48.660;9.116;2022-11-12T05:36:04;0.20;;;0.20;;
15555;SDS011;7879;48.660;9.116;2022-11-12T05:38:31;0.30;;;0.30;;
15555;SDS011;7879;48.660;9.116;2022-11-12T05:40:57;0.30;;;0.30;;
15555;SDS011;7879;48.660;9.116;2022-11-12T05:43:24;0.30;;;0.30;;
15555;SDS011;7879;48.660;9.116;2022-11-12T05:45:51;0.30;;;0.30;;
15555;SDS011;7879;48.660;9.116;2022-11-12T05:48:18;0.30;;;0.30;;
15555;SDS011;7879;48.660;9.116;2022-11-12T05:50:50;0.20;;;0.20;;
15555;SDS011;7879;48.660;9.116;2022-11-12T05:53:38;0.20;;;0.20;;
15555;SDS011;7879;48.660;9.116;2022-11-12T05:56:05;0.20;;;0.20;;
15555;SDS011;7879;48.660;9.116;2022-11-12T05:58:32;0.20;;;0.20;;
15555;SDS011;7879;48.660;9.116;2022-11-12T06:01:00;0.10;;;0.10;;
15555;SDS011;7879;48.660;9.116;2022-11-12T06:03:27;0.15;;;0.15;;
15555;SDS011;7879;48.660;9.116;2022-11-12T06:05:54;0.20;;;0.20;;
15555;SDS011;7879;48.660;9.116;2022-11-12T06:08:21;0.30;;;0.30;;
15555;SDS011;7879;48.660;9.116;2022-11-12T06:10:50;0.30;;;0.30;;
15555;SDS011;7879;48.660;9.116;2022-11-12T06:13:19;0.30;;;0.30;;
15555;SDS011;7879;48.660;9.116;2022-11-12T06:15:46;0.30;;;0.30;;
15555;SDS011;7879;48.660;9.116;2022-11-12T06:18:13;0.30;;;0.30;;
15555;SDS011;7879;48.660;9.116;2022-11-12T06:20:40;0.30;;;0.30;;
15555;SDS011;7879;48.660;9.116;2022-11-12T06:23:07;0.30;;;0.30;;
15555;SDS011;7879;48.660;9.116;2022-11-12T06:25:33;0.30;;;0.30;;
15555;SDS011;7879;48.660;9.116;2022-11-12T06:28:00;0.30;;;0.30;;
15555;SDS011;7879;48.660;9.116;2022-11-12T06:30:27;0.20;;;0.20;;
15555;SDS011;7879;48.660;9.116;2022-11-12T06:32:54;0.30;;;0.30;;
15555;SDS011;7879;48.660;9.116;2022-11-12T06:35:21;0.22;;;0.22;;
15555;SDS011;7879;48.660;9.116;2022-11-12T06:37:48;0.30;;;0.30;;
15555;SDS011;7879;48.660;9.116;2022-11-12T06:40:15;0.20;;;0.20;;
15555;SDS011;7879;48.660;9.116;2022-11-12T06:42:42;0.20;;;0.20;;
15555;SDS011;7879;48.660;9.116;2022-11-12T06:45:08;0.20;;;0.20;;
15555;SDS011;7879;48.660;9.116;2022-11-12T06:47:35;0.20;;;0.20;;
15555;SDS011;7879;48.660;9.116;2022-11-12T06:50:02;0.20;;;0.20;;
15555;SDS011;7879;48.660;9.116;2022-11-12T06:52:29;0.20;;;0.20;;
15555;SDS011;7879;48.660;9.116;2022-11-12T06:54:56;0.28;;;0.28;;
15555;SDS011;7879;48.660;9.116;2022-11-12T06:57:23;0.20;;;0.20;;
15555;SDS011;7879;48.660;9.116;2022-11-12T06:59:49;0.20;;;0.20;;
15555;SDS011;7879;48.660;9.116;2022-11-12T07:02:16;0.25;;;0.25;;
15555;SDS011;7879;48.660;9.116;2022-11-12T07:04:44;0.20;;;0.20;;
15555;SDS011;7879;48.660;9.116;2022-11-12T07:07:10;0.20;;;0.20;;
15555;SDS011;7879;48.660;9.116;2022-11-12T07:09:37;0.20;;;0.20;;
15555;SDS011;7879;48.660;9.116;2022-11-12T07:12:04;0.20;;;0.20;;
15555;SDS011;7879;48.660;9.116;2022-11-12T07:14:31;0.20;;;0.20;;
15555;SDS011;7879;48.660;9.116;2022-11-12T07:16:58;0.10;;;0.10;;
15555;SDS011;7879;48.660;9.116;2022-11-12T07:19:25;0.10;;;0.10;;
15555;SDS011;7879;48.660;9.116;2022-11-12T07:21:51;0.20;;;0.20;;
15555;SDS011;7879;48.660;9.116;2022-11-12T07:24:18;0.20;;;0.20;;
15555;SDS011;7879;48.660;9.116;2022-11-12T07:26:45;0.20;;;0.20;;
15555;SDS011;7879;48.660;9.116;2022-11-12T07:29:13;0.20;;;0.20;;
15555;SDS011;7879;48.660;9.116;2022-11-12T07:32:00;0.30;;;0.30;;
15555;SDS011;7879;48.660;9.116;2022-11-12T07:34:27;0.30;;;0.30;;
15555;SDS011;7879;48.660;9.116;2022-11-12T07:36:54;0.20;;;0.20;;
15555;SDS011;7879;48.660;9.116;2022-11-12T07:39:20;0.28;;;0.28;;
15555;SDS011;7879;48.660;9.116;2022-11-12T07:41:47;0.20;;;0.20;;
15555;SDS011;7879;48.660;9.116;2022-11-12T07:44:14;0.20;;;0.20;;
15555;SDS011;7879;48.660;9.116;2022-11-12T07:46:44;0.15;;;0.15;;
15555;SDS011;7879;48.660;9.116;2022-11-12T07:49:11;0.22;;;0.22;;
15555;SDS011;7879;48.660;9.116;2022-11-12T07:51:38;0.28;;;0.28;;
15555;SDS011;7879;48.660;9.116;2022-11-12T07:54:05;0.20;;;0.20;;
15555;SDS011;7879;48.660;9.116;2022-11-12T07:56:31;0.20;;;0.20;;
15555;SDS011;7879;48.660;9.116;2022-11-12T07:58:58;0.10;;;0.10;;
15555;SDS011;7879;48.660;9.116;2022-11-12T08:01:32;0.20;;;0.20;;
15555;SDS011;7879;48.660;9.116;2022-11-12T08:03:59;0.30;;;0.30;;
15555;SDS011;7879;48.660;9.116;2022-11-12T08:06:27;0.20;;;0.20;;
15555;SDS011;7879;48.660;9.116;2022-11-12T08:08:55;0.10;;;0.10;;
15555;SDS011;7879;48.660;9.116;2022-11-12T08:11:23;0.20;;;0.20;;
15555;SDS011;7879;48.660;9.116;2022-11-12T08:13:50;0.20;;;0.20;;
15555;SDS011;7879;48.660;9.116;2022-11-12T08:16:17;0.10;;;0.10;;
15555;SDS011;7879;48.660;9.116;2022-11-12T08:18:44;0.10;;;0.10;;
15555;SDS011;7879;48.660;9.116;2022-11-12T08:21:12;0.20;;;0.20;;
15555;SDS011;7879;48.660;9.116;2022-11-12T08:23:40;0.10;;;0.10;;
15555;SDS011;7879;48.660;9.116;2022-11-12T08:26:09;0.10;;;0.10;;
15555;SDS011;7879;48.660;9.116;2022-11-12T08:28:38;0.20;;;0.20;;
15555;SDS011;7879;48.660;9.116;2022-11-12T08:31:06;0.10;;;0.10;;
15555;SDS011;7879;48.660;9.116;2022-11-12T08:33:37;0.20;;;0.20;;
15555;SDS011;7879;48.660;9.116;2022-11-12T08:36:05;0.10;;;0.10;;
15555;SDS011;7879;48.660;9.116;2022-11-12T08:38:34;0.10;;;0.10;;
15555;SDS011;7879;48.660;9.116;2022-11-12T08:41:02;0.15;;;0.15;;
15555;SDS011;7879;48.660;9.116;2022-11-12T08:43:29;0.10;;;0.10;;
15555;SDS011;7879;48.660;9.116;2022-11-12T08:45:57;0.20;;;0.20;;
15555;SDS011;7879;48.660;9.116;2022-11-12T08:48:25;0.10;;;0.10;;
15555;SDS011;7879;48.660;9.116;2022-11-12T08:50:54;0.20;;;0.20;;
15555;SDS011;7879;48.660;9.116;2022-11-12T08:53:21;0.10;;;0.10;;
15555;SDS011;7879;48.660;9.116;2022-11-12T08:55:51;0.20;;;0.20;;
15555;SDS011;7879;48.660;9.116;2022-11-12T08:58:19;0.10;;;0.10;;
15555;SDS011;7879;48.660;9.116;2022-11-12T09:00:46;0.20;;;0.20;;
15555;SDS011;7879;48.660;9.116;2022-11-12T09:03:16;0.10;;;0.10;;
15555;SDS011;7879;48.660;9.116;2022-11-12T09:05:44;0.20;;;0.20;;
15555;SDS011;7879;48.660;9.116;2022-11-12T09:08:12;0.10;;;0.10;;
15555;SDS011;7879;48.660;9.116;2022-11-12T09:10:40;0.10;;;0.10;;
15555;SDS011;7879;48.660;9.116;2022-11-12T09:13:07;0.10;;;0.10;;
15555;SDS011;7879;48.660;9.116;2022-11-12T09:15:34;0.10;;;0.10;;
15555;SDS011;7879;48.660;9.116;2022-11-12T09:18:05;0.10;;;0.10;;
15555;SDS011;7879;48.660;9.116;2022-11-12T09:20:33;0.10;;;0.10;;
15555;SDS011;7879;48.660;9.116;2022-11-12T09:23:01;0.10;;;0.10;;
15555;SDS011;7879;48.660;9.116;2022-11-12T09:25:35;0.10;;;0.10;;
15555;SDS011;7879;48.660;9.116;2022-11-12T09:28:10;0.00;;;0.00;;
15555;SDS011;7879;48.660;9.116;2022-11-12T09:30:43;0.00;;;0.00;;
15555;SDS011;7879;48.660;9.116;2022-11-12T09:33:16;0.00;;;0.00;;
15555;SDS011;7879;48.660;9.116;2022-11-12T09:35:45;0.00;;;0.00;;
15555;SDS011;7879;48.660;9.116;2022-11-12T09:38:12;0.00;;;0.00;;
15555;SDS011;7879;48.660;9.116;2022-11-12T09:43:23;0.00;;;0.00;;
15555;SDS011;7879;48.660;9.116;2022-11-12T09:45:55;0.00;;;0.00;;
15555;SDS011;7879;48.660;9.116;2022-11-12T09:48:46;0.00;;;0.00;;
15555;SDS011;7879;48.660;9.116;2022-11-12T09:51:25;0.00;;;0.00;;
15555;SDS011;7879;48.660;9.116;2022-11-12T09:53:56;0.00;;;0.00;;
15555;SDS011;7879;48.660;9.116;2022-11-12T09:56:24;0.00;;;0.00;;
15555;SDS011;7879;48.660;9.116;2022-11-12T09:58:53;0.00;;;0.00;;
15555;SDS011;7879;48.660;9.116;2022-11-12T10:12:37;0.00;;;0.00;;
15555;SDS011;7879;48.660;9.116;2022-11-12T10:15:26;0.00;;;0.00;;
15555;SDS011;7879;48.660;9.116;2022-11-12T10:21:35;0.00;;;0.00;;
15555;SDS011;7879;48.660;9.116;2022-11-12T10:24:02;0.00;;;0.00;;
15555;SDS011;7879;48.660;9.116;2022-11-12T10:26:34;0.00;;;0.00;;
15555;SDS011;7879;48.660;9.116;2022-11-12T10:31:36;0.00;;;0.00;;
15555;SDS011;7879;48.660;9.116;2022-11-12T10:34:13;0.00;;;0.00;;
15555;SDS011;7879;48.660;9.116;2022-11-12T10:36:49;0.00;;;0.00;;
15555;SDS011;7879;48.660;9.116;2022-11-12T10:39:31;0.00;;;0.00;;
15555;SDS011;7879;48.660;9.116;2022-11-12T10:42:02;0.00;;;0.00;;
15555;SDS011;7879;48.660;9.116;2022-11-12T10:44:31;0.00;;;0.00;;
15555;SDS011;7879;48.660;9.116;2022-11-12T10:50:00;0.00;;;0.00;;
15555;SDS011;7879;48.660;9.116;2022-11-12T10:52:33;0.00;;;0.00;;
15555;SDS011;7879;48.660;9.116;2022-11-12T11:00:37;0.00;;;0.00;;
15555;SDS011;7879;48.660;9.116;2022-11-12T11:03:30;0.00;;;0.00;;
15555;SDS011;7879;48.660;9.116;2022-11-12T11:06:08;0.00;;;0.00;;
15555;SDS011;7879;48.660;9.116;2022-11-12T11:08:50;0.00;;;0.00;;
15555;SDS011;7879;48.660;9.116;2022-11-12T11:13:54;0.00;;;0.00;;
15555;SDS011;7879;48.660;9.116;2022-11-12T11:16:24;0.00;;;0.00;;
15555;SDS011;7879;48.660;9.116;2022-11-12T11:18:57;0.00;;;0.00;;
15555;SDS011;7879;48.660;9.116;2022-11-12T11:24:30;0.00;;;0.00;;
15555;SDS011;7879;48.660;9.116;2022-11-12T11:27:28;0.00;;;0.00;;
15555;SDS011;7879;48.660;9.116;2022-11-12T11:30:05;0.00;;;0.00;;
15555;SDS011;7879;48.660;9.116;2022-11-12T11:32:54;0.00;;;0.00;;
15555;SDS011;7879;48.660;9.116;2022-11-12T11:38:51;0.00;;;0.00;;
15555;SDS011;7879;48.660;9.116;2022-11-12T12:00:59;0.00;;;0.00;;
15555;SDS011;7879;48.660;9.116;2022-11-12T12:11:45;0.10;;;0.10;;
15555;SDS011;7879;48.660;9.116;2022-11-12T12:27:07;0.00;;;0.00;;
15555;SDS011;7879;48.660;9.116;2022-11-12T12:32:18;0.10;;;0.10;;
15555;SDS011;7879;48.660;9.116;2022-11-12T12:35:21;0.00;;;0.00;;
15555;SDS011;7879;48.660;9.116;2022-11-12T12:38:14;0.10;;;0.10;;
15555;SDS011;7879;48.660;9.116;2022-11-12T12:40:51;0.00;;;0.00;;
15555;SDS011;7879;48.660;9.116;2022-11-12T12:46:09;0.10;;;0.10;;
15555;SDS011;7879;48.660;9.116;2022-11-12T12:48:39;0.10;;;0.10;;
15555;SDS011;7879;48.660;9.116;2022-11-12T12:51:15;0.03;;;0.03;;
15555;SDS011;7879;48.660;9.116;2022-11-12T12:54:38;0.10;;;0.10;;
15555;SDS011;7879;48.660;9.116;2022-11-12T12:57:02;0.03;;;0.03;;
15555;SDS011;7879;48.660;9.116;2022-11-12T12:59:34;0.10;;;0.10;;
15555;SDS011;7879;48.660;9.116;2022-11-12T13:02:20;0.10;;;0.10;;
15555;SDS011;7879;48.660;9.116;2022-11-12T13:04:53;0.10;;;0.10;;
15555;SDS011;7879;48.660;9.116;2022-11-12T13:08:04;0.10;;;0.10;;
15555;SDS011;7879;48.660;9.116;2022-11-12T13:13:22;0.10;;;0.10;;
15555;SDS011;7879;48.660;9.116;2022-11-12T13:15:57;0.10;;;0.10;;
15555;SDS011;7879;48.660;9.116;2022-11-12T13:23:48;0.00;;;0.00;;
15555;SDS011;7879;48.660;9.116;2022-11-12T13:26:43;0.10;;;0.10;;
15555;SDS011;7879;48.660;9.116;2022-11-12T13:40:13;0.10;;;0.10;;
15555;SDS011;7879;48.660;9.116;2022-11-12T13:42:44;0.10;;;0.10;;
15555;SDS011;7879;48.660;9.116;2022-11-12T13:45:24;0.10;;;0.10;;
15555;SDS011;7879;48.660;9.116;2022-11-12T13:47:52;0.10;;;0.10;;
15555;SDS011;7879;48.660;9.116;2022-11-12T13:50:20;0.10;;;0.10;;
15555;SDS011;7879;48.660;9.116;2022-11-12T13:52:48;0.10;;;0.10;;
15555;SDS011;7879;48.660;9.116;2022-11-12T13:55:16;0.10;;;0.10;;
15555;SDS011;7879;48.660;9.116;2022-11-12T13:57:49;0.10;;;0.10;;
15555;SDS011;7879;48.660;9.116;2022-11-12T14:02:44;0.10;;;0.10;;
15555;SDS011;7879;48.660;9.116;2022-11-12T14:05:31;0.10;;;0.10;;
15555;SDS011;7879;48.660;9.116;2022-11-12T14:11:03;0.10;;;0.10;;
15555;SDS011;7879;48.660;9.116;2022-11-12T14:16:46;0.10;;;0.10;;
15555;SDS011;7879;48.660;9.116;2022-11-12T14:22:34;0.03;;;0.03;;
15555;SDS011;7879;48.660;9.116;2022-11-12T14:25:11;0.10;;;0.10;;
15555;SDS011;7879;48.660;9.116;2022-11-12T14:27:48;0.10;;;0.10;;
15555;SDS011;7879;48.660;9.116;2022-11-12T14:30:17;0.10;;;0.10;;
15555;SDS011;7879;48.660;9.116;2022-11-12T14:32:56;0.00;;;0.00;;
15555;SDS011;7879;48.660;9.116;2022-11-12T14:38:13;0.10;;;0.10;;
15555;SDS011;7879;48.660;9.116;2022-11-12T14:40:42;0.10;;;0.10;;
15555;SDS011;7879;48.660;9.116;2022-11-12T14:43:42;0.10;;;0.10;;
15555;SDS011;7879;48.660;9.116;2022-11-12T14:46:22;0.10;;;0.10;;
15555;SDS011;7879;48.660;9.116;2022-11-12T14:49:17;0.10;;;0.10;;
15555;SDS011;7879;48.660;9.116;2022-11-12T14:54:49;0.10;;;0.10;;
15555;SDS011;7879;48.660;9.116;2022-11-12T14:57:24;0.08;;;0.08;;
15555;SDS011;7879;48.660;9.116;2022-11-12T14:59:53;0.10;;;0.10;;
15555;SDS011;7879;48.660;9.116;2022-11-12T15:02:31;0.10;;;0.10;;
15555;SDS011;7879;48.660;9.116;2022-11-12T15:05:16;0.10;;;0.10;;
15555;SDS011;7879;48.660;9.116;2022-11-12T15:10:30;0.10;;;0.10;;
15555;SDS011;7879;48.660;9.116;2022-11-12T15:13:07;0.10;;;0.10;;
15555;SDS011;7879;48.660;9.116;2022-11-12T15:21:55;0.10;;;0.10;;
15555;SDS011;7879;48.660;9.116;2022-11-12T15:27:01;0.10;;;0.10;;
15555;SDS011;7879;48.660;9.116;2022-11-12T15:35:37;0.10;;;0.10;;
15555;SDS011;7879;48.660;9.116;2022-11-12T15:38:14;0.10;;;0.10;;
15555;SDS011;7879;48.660;9.116;2022-11-12T15:40:47;0.10;;;0.10;;
15555;SDS011;7879;48.660;9.116;2022-11-12T15:43:31;0.17;;;0.17;;
15555;SDS011;7879;48.660;9.116;2022-11-12T15:46:11;0.10;;;0.10;;
15555;SDS011;7879;48.660;9.116;2022-11-12T15:48:42;0.10;;;0.10;;
15555;SDS011;7879;48.660;9.116;2022-11-12T15:51:09;0.10;;;0.10;;
15555;SDS011;7879;48.660;9.116;2022-11-12T15:53:37;0.10;;;0.10;;
15555;SDS011;7879;48.660;9.116;2022-11-12T15:56:03;0.00;;;0.00;;
15555;SDS011;7879;48.660;9.116;2022-11-12T15:58:34;0.10;;;0.10;;
15555;SDS011;7879;48.660;9.116;2022-11-12T16:01:02;0.10;;;0.10;;
15555;SDS011;7879;48.660;9.116;2022-11-12T16:03:32;0.10;;;0.10;;
15555;SDS011;7879;48.660;9.116;2022-11-12T16:05:59;0.20;;;0.20;;
15555;SDS011;7879;48.660;9.116;2022-11-12T16:08:33;0.10;;;0.10;;
15555;SDS011;7879;48.660;9.116;2022-11-12T16:11:00;0.20;;;0.20;;
15555;SDS011;7879;48.660;9.116;2022-11-12T16:13:28;0.10;;;0.10;;
15555;SDS011;7879;48.660;9.116;2022-11-12T16:15:59;0.17;;;0.17;;
15555;SDS011;7879;48.660;9.116;2022-11-12T16:18:28;0.10;;;0.10;;
15555;SDS011;7879;48.660;9.116;2022-11-12T16:20:55;0.10;;;0.10;;
15555;SDS011;7879;48.660;9.116;2022-11-12T16:23:22;0.20;;;0.20;;
15555;SDS011;7879;48.660;9.116;2022-11-12T16:25:49;0.10;;;0.10;;
15555;SDS011;7879;48.660;9.116;2022-11-12T16:28:17;0.20;;;0.20;;
15555;SDS011;7879;48.660;9.116;2022-11-12T16:30:44;0.10;;;0.10;;
15555;SDS011;7879;48.660;9.116;2022-11-12T16:33:13;0.10;;;0.10;;
15555;SDS011;7879;48.660;9.116;2022-11-12T16:35:40;0.10;;;0.10;;
15555;SDS011;7879;48.660;9.116;2022-11-12T16:38:09;0.10;;;0.10;;
15555;SDS011;7879;48.660;9.116;2022-11-12T16:40:38;0.20;;;0.20;;
15555;SDS011;7879;48.660;9.116;2022-11-12T16:43:05;0.10;;;0.10;;
15555;SDS011;7879;48.660;9.116;2022-11-12T16:45:33;0.10;;;0.10;;
15555;SDS011;7879;48.660;9.116;2022-11-12T16:48:05;0.20;;;0.20;;
15555;SDS011;7879;48.660;9.116;2022-11-12T16:50:46;0.10;;;0.10;;
15555;SDS011;7879;48.660;9.116;2022-11-12T16:53:14;0.10;;;0.10;;
15555;SDS011;7879;48.660;9.116;2022-11-12T16:55:40;0.20;;;0.20;;
15555;SDS011;7879;48.660;9.116;2022-11-12T16:58:12;0.10;;;0.10;;
15555;SDS011;7879;48.660;9.116;2022-11-12T17:00:40;0.10;;;0.10;;
15555;SDS011;7879;48.660;9.116;2022-11-12T17:03:12;0.20;;;0.20;;
15555;SDS011;7879;48.660;9.116;2022-11-12T17:05:39;0.20;;;0.20;;
15555;SDS011;7879;48.660;9.116;2022-11-12T17:08:07;0.10;;;0.10;;
15555;SDS011;7879;48.660;9.116;2022-11-12T17:10:34;0.20;;;0.20;;
15555;SDS011;7879;48.660;9.116;2022-11-12T17:13:01;0.20;;;0.20;;
15555;SDS011;7879;48.660;9.116;2022-11-12T17:15:28;0.10;;;0.10;;
15555;SDS011;7879;48.660;9.116;2022-11-12T17:17:54;0.10;;;0.10;;
15555;SDS011;7879;48.660;9.116;2022-11-12T17:20:21;0.20;;;0.20;;
15555;SDS011;7879;48.660;9.116;2022-11-12T17:22:48;0.20;;;0.20;;
15555;SDS011;7879;48.660;9.116;2022-11-12T17:25:15;0.20;;;0.20;;
15555;SDS011;7879;48.660;9.116;2022-11-12T17:27:41;0.10;;;0.10;;
15555;SDS011;7879;48.660;9.116;2022-11-12T17:30:08;0.10;;;0.10;;
15555;SDS011;7879;48.660;9.116;2022-11-12T17:32:40;0.20;;;0.20;;
15555;SDS011;7879;48.660;9.116;2022-11-12T17:35:24;0.20;;;0.20;;
15555;SDS011;7879;48.660;9.116;2022-11-12T17:37:51;0.10;;;0.10;;
15555;SDS011;7879;48.660;9.116;2022-11-12T17:40:18;0.10;;;0.10;;
15555;SDS011;7879;48.660;9.116;2022-11-12T17:42:44;0.10;;;0.10;;